sensor_id;sensor_type;location;lat;lon;timestamp;pressure;altitude;pressure_sealevel;temperature;humidity
59194;BME280;44967;48.598;15.650;2022-07-23T00:01:57;98101.31;;;28.37;44.64
59194;BME280;44967;48.598;15.650;2022-07-23T00:04:23;98107.03;;;28.43;44.06
59194;BME280;44967;48.598;15.650;2022-07-23T00:06:49;98117.69;;;28.39;44.55
59194;BME280;44967;48.598;15.650;2022-07-23T00:09:15;98116.22;;;28.28;44.83
59194;BME280;44967;48.598;15.650;2022-07-23T00:11:40;98128.59;;;28.06;45.53
59194;BME280;44967;48.598;15.650;2022-07-23T00:14:06;98137.47;;;28.05;44.36
59194;BME280;44967;48.598;15.650;2022-07-23T00:16:31;98126.94;;;28.15;44.08
59194;BME280;44967;48.598;15.650;2022-07-23T00:18:57;98134.53;;;28.24;44.20
59194;BME280;44967;48.598;15.650;2022-07-23T00:21:23;98137.16;;;28.42;42.93
59194;BME280;44967;48.598;15.650;2022-07-23T00:23:48;98137.94;;;28.28;42.66
59194;BME280;44967;48.598;15.650;2022-07-23T00:26:14;98145.47;;;28.37;43.36
59194;BME280;44967;48.598;15.650;2022-07-23T00:28:39;98155.66;;;28.34;43.57
59194;BME280;44967;48.598;15.650;2022-07-23T00:31:05;98152.47;;;28.41;43.53
59194;BME280;44967;48.598;15.650;2022-07-23T00:33:31;98152.66;;;28.53;43.40
59194;BME280;44967;48.598;15.650;2022-07-23T00:35:57;98159.25;;;28.50;42.63
59194;BME280;44967;48.598;15.650;2022-07-23T00:38:22;98158.66;;;28.30;43.21
59194;BME280;44967;48.598;15.650;2022-07-23T00:40:48;98161.56;;;28.36;43.35
59194;BME280;44967;48.598;15.650;2022-07-23T00:43:13;98163.09;;;28.37;43.42
59194;BME280;44967;48.598;15.650;2022-07-23T00:45:39;98161.09;;;28.38;43.12
59194;BME280;44967;48.598;15.650;2022-07-23T00:48:05;98157.41;;;28.46;42.23
59194;BME280;44967;48.598;15.650;2022-07-23T00:50:30;98149.47;;;28.60;42.41
59194;BME280;44967;48.598;15.650;2022-07-23T00:52:56;98164.56;;;28.63;42.99
59194;BME280;44967;48.598;15.650;2022-07-23T00:55:22;98166.22;;;28.54;43.65
59194;BME280;44967;48.598;15.650;2022-07-23T00:57:49;98178.78;;;28.44;43.58
59194;BME280;44967;48.598;15.650;2022-07-23T01:00:16;98182.44;;;28.20;43.86
59194;BME280;44967;48.598;15.650;2022-07-23T01:02:42;98179.06;;;28.31;44.47
59194;BME280;44967;48.598;15.650;2022-07-23T01:05:08;98181.13;;;28.45;44.09
59194;BME280;44967;48.598;15.650;2022-07-23T01:07:34;98175.88;;;28.38;44.01
59194;BME280;44967;48.598;15.650;2022-07-23T01:10:01;98173.44;;;28.31;44.53
59194;BME280;44967;48.598;15.650;2022-07-23T01:12:27;98170.47;;;28.50;44.35
59194;BME280;44967;48.598;15.650;2022-07-23T01:15:00;98172.59;;;28.55;43.89
59194;BME280;44967;48.598;15.650;2022-07-23T01:17:26;98169.91;;;28.60;43.42
59194;BME280;44967;48.598;15.650;2022-07-23T01:19:52;98170.28;;;28.53;43.41
59194;BME280;44967;48.598;15.650;2022-07-23T01:22:18;98167.28;;;28.42;43.93
59194;BME280;44967;48.598;15.650;2022-07-23T01:24:44;98173.97;;;28.44;43.92
59194;BME280;44967;48.598;15.650;2022-07-23T01:27:10;98175.59;;;28.36;44.31
59194;BME280;44967;48.598;15.650;2022-07-23T01:29:38;98178.31;;;28.45;44.07
59194;BME280;44967;48.598;15.650;2022-07-23T01:32:05;98179.06;;;28.31;44.83
59194;BME280;44967;48.598;15.650;2022-07-23T01:34:31;98179.06;;;28.31;45.00
59194;BME280;44967;48.598;15.650;2022-07-23T01:36:56;98186.41;;;28.28;44.83
59194;BME280;44967;48.598;15.650;2022-07-23T01:39:22;98179.94;;;28.22;44.54
59194;BME280;44967;48.598;15.650;2022-07-23T01:41:47;98186.97;;;28.17;44.87
59194;BME280;44967;48.598;15.650;2022-07-23T01:44:13;98185.84;;;28.24;45.52
59194;BME280;44967;48.598;15.650;2022-07-23T01:46:39;98180.75;;;28.13;45.54
59194;BME280;44967;48.598;15.650;2022-07-23T01:49:04;98177.44;;;28.00;45.73
59194;BME280;44967;48.598;15.650;2022-07-23T01:51:30;98159.59;;;27.88;45.55
59194;BME280;44967;48.598;15.650;2022-07-23T01:53:56;98155.69;;;27.70;46.27
59194;BME280;44967;48.598;15.650;2022-07-23T01:56:22;98143.44;;;27.83;45.79
59194;BME280;44967;48.598;15.650;2022-07-23T01:58:48;98139.88;;;27.97;45.69
59194;BME280;44967;48.598;15.650;2022-07-23T02:01:14;98138.13;;;28.00;45.85
59194;BME280;44967;48.598;15.650;2022-07-23T02:03:40;98139.31;;;28.08;45.51
59194;BME280;44967;48.598;15.650;2022-07-23T02:06:05;98131.69;;;28.09;45.33
59194;BME280;44967;48.598;15.650;2022-07-23T02:08:31;98124.63;;;28.13;45.53
59194;BME280;44967;48.598;15.650;2022-07-23T02:10:56;98116.75;;;28.02;45.66
59194;BME280;44967;48.598;15.650;2022-07-23T02:13:22;98104.78;;;28.02;45.64
59194;BME280;44967;48.598;15.650;2022-07-23T02:15:48;98090.44;;;28.00;45.55
59194;BME280;44967;48.598;15.650;2022-07-23T02:18:14;98088.31;;;27.95;45.49
59194;BME280;44967;48.598;15.650;2022-07-23T02:20:40;98067.75;;;27.73;45.79
59194;BME280;44967;48.598;15.650;2022-07-23T02:23:05;98050.81;;;27.68;45.89
59194;BME280;44967;48.598;15.650;2022-07-23T02:25:32;98041.91;;;27.69;46.49
59194;BME280;44967;48.598;15.650;2022-07-23T02:27:59;98039.31;;;27.65;46.27
59194;BME280;44967;48.598;15.650;2022-07-23T02:30:24;98031.78;;;27.47;46.88
59194;BME280;44967;48.598;15.650;2022-07-23T02:32:50;98019.88;;;27.37;46.78
59194;BME280;44967;48.598;15.650;2022-07-23T02:35:15;97998.88;;;27.33;47.17
59194;BME280;44967;48.598;15.650;2022-07-23T02:37:41;97988.13;;;27.56;46.83
59194;BME280;44967;48.598;15.650;2022-07-23T02:40:07;97966.91;;;27.40;47.22
59194;BME280;44967;48.598;15.650;2022-07-23T02:42:34;97941.47;;;27.43;46.89
59194;BME280;44967;48.598;15.650;2022-07-23T02:44:59;97920.09;;;27.31;47.43
59194;BME280;44967;48.598;15.650;2022-07-23T02:47:25;97903.03;;;27.19;46.70
59194;BME280;44967;48.598;15.650;2022-07-23T02:49:50;97917.03;;;27.04;47.19
59194;BME280;44967;48.598;15.650;2022-07-23T02:52:16;97929.44;;;27.13;48.00
59194;BME280;44967;48.598;15.650;2022-07-23T02:54:41;97977.25;;;27.09;46.64
59194;BME280;44967;48.598;15.650;2022-07-23T02:57:07;98008.34;;;27.35;46.11
59194;BME280;44967;48.598;15.650;2022-07-23T02:59:33;98053.63;;;27.68;45.66
59194;BME280;44967;48.598;15.650;2022-07-23T03:01:58;98077.41;;;27.57;45.85
59194;BME280;44967;48.598;15.650;2022-07-23T03:04:24;98069.13;;;27.54;44.99
59194;BME280;44967;48.598;15.650;2022-07-23T03:06:49;98045.03;;;27.47;45.29
59194;BME280;44967;48.598;15.650;2022-07-23T03:09:16;98039.91;;;27.45;45.32
59194;BME280;44967;48.598;15.650;2022-07-23T03:11:41;98050.41;;;27.60;45.70
59194;BME280;44967;48.598;15.650;2022-07-23T03:14:07;98053.66;;;27.83;45.14
59194;BME280;44967;48.598;15.650;2022-07-23T03:16:33;98052.88;;;27.82;45.47
59194;BME280;44967;48.598;15.650;2022-07-23T03:18:58;98066.19;;;27.72;44.82
59194;BME280;44967;48.598;15.650;2022-07-23T03:21:24;98076.13;;;27.98;43.69
59194;BME280;44967;48.598;15.650;2022-07-23T03:23:49;98074.75;;;28.08;44.15
59194;BME280;44967;48.598;15.650;2022-07-23T03:26:15;98075.06;;;28.10;44.26
59194;BME280;44967;48.598;15.650;2022-07-23T03:28:40;98077.38;;;27.97;44.12
59194;BME280;44967;48.598;15.650;2022-07-23T03:31:06;98077.66;;;27.99;45.05
59194;BME280;44967;48.598;15.650;2022-07-23T03:33:32;98090.00;;;27.77;45.93
59194;BME280;44967;48.598;15.650;2022-07-23T03:35:58;98092.88;;;27.68;46.36
59194;BME280;44967;48.598;15.650;2022-07-23T03:38:23;98109.44;;;27.65;45.30
59194;BME280;44967;48.598;15.650;2022-07-23T03:40:49;98116.94;;;27.84;45.31
59194;BME280;44967;48.598;15.650;2022-07-23T03:43:15;98120.41;;;27.93;45.05
59194;BME280;44967;48.598;15.650;2022-07-23T03:45:40;98124.41;;;28.02;45.28
59194;BME280;44967;48.598;15.650;2022-07-23T03:48:06;98122.34;;;27.87;44.51
59194;BME280;44967;48.598;15.650;2022-07-23T03:50:32;98114.41;;;27.86;45.14
59194;BME280;44967;48.598;15.650;2022-07-23T03:52:57;98123.16;;;28.03;44.81
59194;BME280;44967;48.598;15.650;2022-07-23T03:55:23;98117.38;;;28.06;44.67
59194;BME280;44967;48.598;15.650;2022-07-23T03:57:48;98122.00;;;28.10;44.64
59194;BME280;44967;48.598;15.650;2022-07-23T04:00:15;98125.38;;;27.99;44.74
59194;BME280;44967;48.598;15.650;2022-07-23T04:02:40;98123.63;;;27.86;44.18
59194;BME280;44967;48.598;15.650;2022-07-23T04:05:06;98118.75;;;27.87;44.72
59194;BME280;44967;48.598;15.650;2022-07-23T04:07:32;98121.28;;;27.85;44.73
59194;BME280;44967;48.598;15.650;2022-07-23T04:09:58;98134.31;;;27.73;45.54
59194;BME280;44967;48.598;15.650;2022-07-23T04:12:24;98131.22;;;27.71;45.70
59194;BME280;44967;48.598;15.650;2022-07-23T04:14:49;98126.78;;;27.79;45.63
59194;BME280;44967;48.598;15.650;2022-07-23T04:17:15;98131.44;;;27.82;45.77
59194;BME280;44967;48.598;15.650;2022-07-23T04:19:41;98133.28;;;27.85;45.85
59194;BME280;44967;48.598;15.650;2022-07-23T04:22:12;98136.22;;;27.91;46.06
59194;BME280;44967;48.598;15.650;2022-07-23T04:24:38;98132.78;;;27.87;45.21
59194;BME280;44967;48.598;15.650;2022-07-23T04:27:05;98134.84;;;28.01;44.64
59194;BME280;44967;48.598;15.650;2022-07-23T04:29:30;98131.31;;;28.16;44.40
59194;BME280;44967;48.598;15.650;2022-07-23T04:31:56;98127.66;;;28.25;44.56
59194;BME280;44967;48.598;15.650;2022-07-23T04:34:22;98120.31;;;28.42;43.90
59194;BME280;44967;48.598;15.650;2022-07-23T04:36:48;98124.75;;;28.64;43.80
59194;BME280;44967;48.598;15.650;2022-07-23T04:39:13;98129.59;;;28.64;44.44
59194;BME280;44967;48.598;15.650;2022-07-23T04:41:39;98122.22;;;28.51;44.71
59194;BME280;44967;48.598;15.650;2022-07-23T04:44:05;98121.28;;;28.54;43.84
59194;BME280;44967;48.598;15.650;2022-07-23T04:46:31;98122.25;;;28.66;43.86
59194;BME280;44967;48.598;15.650;2022-07-23T04:48:57;98135.22;;;28.64;45.08
59194;BME280;44967;48.598;15.650;2022-07-23T04:51:23;98129.13;;;28.65;44.69
59194;BME280;44967;48.598;15.650;2022-07-23T04:53:49;98129.78;;;28.60;44.36
59194;BME280;44967;48.598;15.650;2022-07-23T04:56:15;98129.59;;;28.64;44.88
59194;BME280;44967;48.598;15.650;2022-07-23T04:58:40;98124.25;;;28.66;45.04
59194;BME280;44967;48.598;15.650;2022-07-23T05:01:07;98129.41;;;28.67;44.90
59194;BME280;44967;48.598;15.650;2022-07-23T05:03:32;98124.16;;;28.75;44.30
59194;BME280;44967;48.598;15.650;2022-07-23T05:05:58;98127.75;;;28.91;43.59
59194;BME280;44967;48.598;15.650;2022-07-23T05:08:24;98126.19;;;28.90;45.49
59194;BME280;44967;48.598;15.650;2022-07-23T05:10:49;98134.53;;;28.84;45.25
59194;BME280;44967;48.598;15.650;2022-07-23T05:13:15;98140.53;;;28.77;45.56
59194;BME280;44967;48.598;15.650;2022-07-23T05:15:42;98136.19;;;28.76;44.92
59194;BME280;44967;48.598;15.650;2022-07-23T05:18:08;98138.31;;;28.81;44.35
59194;BME280;44967;48.598;15.650;2022-07-23T05:20:34;98138.31;;;28.81;43.33
59194;BME280;44967;48.598;15.650;2022-07-23T05:22:59;98136.75;;;28.95;42.73
59194;BME280;44967;48.598;15.650;2022-07-23T05:25:25;98141.84;;;29.11;43.29
59194;BME280;44967;48.598;15.650;2022-07-23T05:27:51;98144.47;;;29.15;44.50
59194;BME280;44967;48.598;15.650;2022-07-23T05:30:16;98137.03;;;29.33;43.73
59194;BME280;44967;48.598;15.650;2022-07-23T05:32:42;98143.44;;;29.33;44.21
59194;BME280;44967;48.598;15.650;2022-07-23T05:35:08;98154.31;;;29.25;44.79
59194;BME280;44967;48.598;15.650;2022-07-23T05:37:33;98173.50;;;29.27;45.59
59194;BME280;44967;48.598;15.650;2022-07-23T05:40:07;98168.97;;;29.29;44.60
59194;BME280;44967;48.598;15.650;2022-07-23T05:42:38;98170.78;;;29.33;44.57
59194;BME280;44967;48.598;15.650;2022-07-23T05:45:04;98158.72;;;29.47;43.96
59194;BME280;44967;48.598;15.650;2022-07-23T05:47:41;98151.44;;;29.55;43.69
59194;BME280;44967;48.598;15.650;2022-07-23T05:50:06;98148.75;;;29.88;42.90
59194;BME280;44967;48.598;15.650;2022-07-23T05:52:32;98161.00;;;30.05;42.53
59194;BME280;44967;48.598;15.650;2022-07-23T05:54:57;98150.69;;;30.02;41.83
59194;BME280;44967;48.598;15.650;2022-07-23T05:57:23;98156.06;;;30.00;41.57
59194;BME280;44967;48.598;15.650;2022-07-23T05:59:48;98149.16;;;30.01;41.22
59194;BME280;44967;48.598;15.650;2022-07-23T06:02:14;98153.38;;;30.12;41.09
59194;BME280;44967;48.598;15.650;2022-07-23T06:04:39;98145.94;;;30.08;40.61
59194;BME280;44967;48.598;15.650;2022-07-23T06:07:05;98140.50;;;30.26;40.81
59194;BME280;44967;48.598;15.650;2022-07-23T06:09:30;98147.81;;;30.44;40.98
59194;BME280;44967;48.598;15.650;2022-07-23T06:11:56;98147.22;;;30.60;40.57
59194;BME280;44967;48.598;15.650;2022-07-23T06:14:22;98144.28;;;30.75;40.22
59194;BME280;44967;48.598;15.650;2022-07-23T06:16:48;98146.88;;;30.79;39.35
59194;BME280;44967;48.598;15.650;2022-07-23T06:19:13;98151.81;;;30.90;39.96
59194;BME280;44967;48.598;15.650;2022-07-23T06:21:39;98146.94;;;30.90;39.51
59194;BME280;44967;48.598;15.650;2022-07-23T06:24:05;98143.63;;;30.92;39.60
59194;BME280;44967;48.598;15.650;2022-07-23T06:26:31;98148.03;;;30.99;39.74
59194;BME280;44967;48.598;15.650;2022-07-23T06:28:57;98140.81;;;30.92;39.32
59194;BME280;44967;48.598;15.650;2022-07-23T06:31:23;98135.75;;;31.02;39.66
59194;BME280;44967;48.598;15.650;2022-07-23T06:33:49;98144.47;;;31.04;39.27
59194;BME280;44967;48.598;15.650;2022-07-23T06:36:15;98138.38;;;31.11;38.96
59194;BME280;44967;48.598;15.650;2022-07-23T06:38:40;98132.81;;;31.23;39.32
59194;BME280;44967;48.598;15.650;2022-07-23T06:41:06;98133.38;;;31.27;39.06
59194;BME280;44967;48.598;15.650;2022-07-23T06:43:32;98125.09;;;31.17;39.09
59194;BME280;44967;48.598;15.650;2022-07-23T06:45:58;98140.47;;;31.16;39.18
59194;BME280;44967;48.598;15.650;2022-07-23T06:48:24;98134.34;;;31.24;39.47
59194;BME280;44967;48.598;15.650;2022-07-23T06:50:49;98156.00;;;31.38;39.64
59194;BME280;44967;48.598;15.650;2022-07-23T06:53:15;98152.91;;;31.36;39.09
59194;BME280;44967;48.598;15.650;2022-07-23T06:55:40;98150.72;;;31.57;38.74
59194;BME280;44967;48.598;15.650;2022-07-23T06:58:06;98146.81;;;31.49;39.55
59194;BME280;44967;48.598;15.650;2022-07-23T07:00:32;98148.66;;;31.58;39.27
59194;BME280;44967;48.598;15.650;2022-07-23T07:02:58;98148.47;;;31.73;38.88
59194;BME280;44967;48.598;15.650;2022-07-23T07:59:57;98124.84;;;26.69;52.47
59194;BME280;44967;48.598;15.650;2022-07-23T08:02:23;98125.81;;;27.82;49.25
59194;BME280;44967;48.598;15.650;2022-07-23T08:04:49;98117.81;;;28.29;48.36
59194;BME280;44967;48.598;15.650;2022-07-23T08:07:15;98116.03;;;28.77;46.86
59194;BME280;44967;48.598;15.650;2022-07-23T08:09:40;98124.28;;;29.17;46.48
59194;BME280;44967;48.598;15.650;2022-07-23T08:12:06;98113.06;;;29.37;45.50
59194;BME280;44967;48.598;15.650;2022-07-23T08:14:32;98120.94;;;29.33;45.25
59194;BME280;44967;48.598;15.650;2022-07-23T08:17:22;98121.69;;;29.34;44.86
59194;BME280;44967;48.598;15.650;2022-07-23T08:19:49;98118.25;;;30.60;42.99
59194;BME280;44967;48.598;15.650;2022-07-23T08:22:14;98113.22;;;32.46;39.91
59194;BME280;44967;48.598;15.650;2022-07-23T08:24:40;98109.25;;;34.05;36.25
59194;BME280;44967;48.598;15.650;2022-07-23T08:27:05;98111.72;;;35.62;33.18
59194;BME280;44967;48.598;15.650;2022-07-23T08:29:31;98098.81;;;36.84;31.24
59194;BME280;44967;48.598;15.650;2022-07-23T08:31:56;98095.16;;;37.57;29.48
59194;BME280;44967;48.598;15.650;2022-07-23T08:34:22;98099.03;;;37.81;28.08
59194;BME280;44967;48.598;15.650;2022-07-23T08:36:48;98102.44;;;38.14;27.43
59194;BME280;44967;48.598;15.650;2022-07-23T08:39:13;98101.06;;;38.50;27.61
59194;BME280;44967;48.598;15.650;2022-07-23T08:41:39;98104.34;;;38.33;26.56
59194;BME280;44967;48.598;15.650;2022-07-23T08:44:07;98102.31;;;38.41;27.02
59194;BME280;44967;48.598;15.650;2022-07-23T08:46:33;98090.94;;;38.91;25.83
59194;BME280;44967;48.598;15.650;2022-07-23T08:48:59;98093.78;;;38.62;26.11
59194;BME280;44967;48.598;15.650;2022-07-23T08:51:26;98094.03;;;38.93;26.28
59194;BME280;44967;48.598;15.650;2022-07-23T08:53:52;98097.16;;;38.82;25.62
59194;BME280;44967;48.598;15.650;2022-07-23T08:56:18;98101.22;;;39.16;26.06
59194;BME280;44967;48.598;15.650;2022-07-23T08:58:46;98096.84;;;39.15;25.82
59194;BME280;44967;48.598;15.650;2022-07-23T09:01:11;98098.19;;;39.51;25.16
59194;BME280;44967;48.598;15.650;2022-07-23T09:03:38;98098.13;;;39.43;24.73
59194;BME280;44967;48.598;15.650;2022-07-23T09:06:04;98101.91;;;39.38;24.79
59194;BME280;44967;48.598;15.650;2022-07-23T09:11:00;98089.38;;;39.85;24.30
59194;BME280;44967;48.598;15.650;2022-07-23T09:13:34;98096.50;;;38.68;25.04
59194;BME280;44967;48.598;15.650;2022-07-23T09:16:06;98104.81;;;37.89;26.07
59194;BME280;44967;48.598;15.650;2022-07-23T09:18:43;98117.91;;;37.30;26.97
59194;BME280;44967;48.598;15.650;2022-07-23T09:21:14;98126.69;;;36.59;28.07
59194;BME280;44967;48.598;15.650;2022-07-23T09:23:46;98134.84;;;35.72;29.68
59194;BME280;44967;48.598;15.650;2022-07-23T09:29:22;98125.47;;;36.68;28.42
59194;BME280;44967;48.598;15.650;2022-07-23T09:34:23;98138.91;;;37.54;28.08
59194;BME280;44967;48.598;15.650;2022-07-23T09:36:52;98135.22;;;37.18;28.29
59194;BME280;44967;48.598;15.650;2022-07-23T09:39:28;98153.38;;;36.17;29.72
59194;BME280;44967;48.598;15.650;2022-07-23T09:41:55;98147.06;;;36.05;29.73
59194;BME280;44967;48.598;15.650;2022-07-23T09:44:21;98152.75;;;36.05;29.74
59194;BME280;44967;48.598;15.650;2022-07-23T09:46:49;98137.94;;;36.13;29.05
59194;BME280;44967;48.598;15.650;2022-07-23T09:49:17;98140.69;;;35.80;29.49
59194;BME280;44967;48.598;15.650;2022-07-23T09:51:45;98146.75;;;36.28;29.28
59194;BME280;44967;48.598;15.650;2022-07-23T09:54:33;98143.91;;;35.71;30.26
59194;BME280;44967;48.598;15.650;2022-07-23T09:57:05;98145.84;;;35.57;30.42
59194;BME280;44967;48.598;15.650;2022-07-23T09:59:35;98152.59;;;35.78;30.02
59194;BME280;44967;48.598;15.650;2022-07-23T10:02:02;98147.34;;;35.63;30.07
59194;BME280;44967;48.598;15.650;2022-07-23T10:04:30;98151.31;;;35.54;29.49
59194;BME280;44967;48.598;15.650;2022-07-23T10:06:58;98148.25;;;35.27;30.41
59194;BME280;44967;48.598;15.650;2022-07-23T10:09:27;98148.72;;;35.32;30.03
59194;BME280;44967;48.598;15.650;2022-07-23T10:11:56;98150.38;;;35.46;30.31
59194;BME280;44967;48.598;15.650;2022-07-23T10:14:33;98137.38;;;35.32;29.80
59194;BME280;44967;48.598;15.650;2022-07-23T10:17:03;98137.47;;;35.20;29.84
59194;BME280;44967;48.598;15.650;2022-07-23T10:19:30;98135.31;;;35.01;30.26
59194;BME280;44967;48.598;15.650;2022-07-23T10:22:06;98128.50;;;35.16;29.92
59194;BME280;44967;48.598;15.650;2022-07-23T10:24:57;98128.22;;;35.20;29.93
59194;BME280;44967;48.598;15.650;2022-07-23T10:27:54;98115.25;;;35.24;29.54
59194;BME280;44967;48.598;15.650;2022-07-23T10:30:41;98125.03;;;35.73;29.35
59194;BME280;44967;48.598;15.650;2022-07-23T10:36:19;98115.78;;;36.05;28.94
59194;BME280;44967;48.598;15.650;2022-07-23T10:39:04;98117.28;;;36.12;26.99
59194;BME280;44967;48.598;15.650;2022-07-23T10:41:35;98110.22;;;35.80;27.07
59194;BME280;44967;48.598;15.650;2022-07-23T10:44:15;98115.56;;;36.03;27.24
59194;BME280;44967;48.598;15.650;2022-07-23T10:46:58;98121.47;;;36.05;27.56
59194;BME280;44967;48.598;15.650;2022-07-23T10:49:42;98124.09;;;36.03;26.97
59194;BME280;44967;48.598;15.650;2022-07-23T10:57:28;98124.88;;;36.56;27.36
59194;BME280;44967;48.598;15.650;2022-07-23T11:02:28;98116.97;;;36.81;25.81
59194;BME280;44967;48.598;15.650;2022-07-23T11:04:59;98125.91;;;36.58;26.78
59194;BME280;44967;48.598;15.650;2022-07-23T11:07:25;98130.63;;;36.17;27.22
59194;BME280;44967;48.598;15.650;2022-07-23T11:09:50;98131.47;;;36.64;27.17
59194;BME280;44967;48.598;15.650;2022-07-23T11:17:23;98129.84;;;36.69;26.73
59194;BME280;44967;48.598;15.650;2022-07-23T11:27:46;98147.91;;;36.00;27.54
59194;BME280;44967;48.598;15.650;2022-07-23T11:35:41;98162.53;;;34.55;27.70
59194;BME280;44967;48.598;15.650;2022-07-23T11:38:13;98156.47;;;34.33;28.06
59194;BME280;44967;48.598;15.650;2022-07-23T11:40:40;98158.72;;;33.99;28.27
59194;BME280;44967;48.598;15.650;2022-07-23T11:43:08;98165.81;;;33.69;28.81
59194;BME280;44967;48.598;15.650;2022-07-23T11:45:49;98155.69;;;33.85;29.27
59194;BME280;44967;48.598;15.650;2022-07-23T11:48:27;98154.75;;;33.66;29.57
59194;BME280;44967;48.598;15.650;2022-07-23T11:50:54;98164.91;;;33.97;29.57
59194;BME280;44967;48.598;15.650;2022-07-23T11:53:25;98155.28;;;33.47;29.89
59194;BME280;44967;48.598;15.650;2022-07-23T11:55:51;98154.50;;;33.69;30.62
59194;BME280;44967;48.598;15.650;2022-07-23T11:58:17;98162.28;;;33.34;30.43
59194;BME280;44967;48.598;15.650;2022-07-23T12:00:42;98156.94;;;33.14;31.40
59194;BME280;44967;48.598;15.650;2022-07-23T12:03:08;98154.03;;;33.42;31.36
59194;BME280;44967;48.598;15.650;2022-07-23T12:05:35;98152.78;;;33.32;32.04
59194;BME280;44967;48.598;15.650;2022-07-23T12:08:06;98147.13;;;33.26;32.10
59194;BME280;44967;48.598;15.650;2022-07-23T12:10:42;98152.03;;;33.08;32.28
59194;BME280;44967;48.598;15.650;2022-07-23T12:13:19;98151.78;;;33.12;31.69
59194;BME280;44967;48.598;15.650;2022-07-23T12:15:47;98141.50;;;32.97;31.55
59194;BME280;44967;48.598;15.650;2022-07-23T12:18:16;98138.69;;;33.09;31.74
59194;BME280;44967;48.598;15.650;2022-07-23T12:20:45;98142.00;;;33.07;31.82
59194;BME280;44967;48.598;15.650;2022-07-23T12:23:14;98130.88;;;33.44;32.05
59194;BME280;44967;48.598;15.650;2022-07-23T12:25:44;98127.22;;;33.60;31.14
59194;BME280;44967;48.598;15.650;2022-07-23T12:28:33;98127.81;;;34.01;31.09
59194;BME280;44967;48.598;15.650;2022-07-23T12:31:00;98129.31;;;34.13;31.35
59194;BME280;44967;48.598;15.650;2022-07-23T12:35:58;98125.06;;;34.31;31.29
59194;BME280;44967;48.598;15.650;2022-07-23T12:38:26;98123.81;;;34.63;30.21
59194;BME280;44967;48.598;15.650;2022-07-23T12:40:53;98124.25;;;34.37;30.03
59194;BME280;44967;48.598;15.650;2022-07-23T12:43:25;98116.47;;;34.43;30.92
59194;BME280;44967;48.598;15.650;2022-07-23T12:46:06;98112.63;;;34.77;29.41
59194;BME280;44967;48.598;15.650;2022-07-23T12:48:37;98102.28;;;34.79;29.67
59194;BME280;44967;48.598;15.650;2022-07-23T12:51:17;98103.81;;;34.80;29.70
59194;BME280;44967;48.598;15.650;2022-07-23T12:53:44;98092.44;;;35.11;29.47
59194;BME280;44967;48.598;15.650;2022-07-23T12:56:31;98090.19;;;35.48;29.80
59194;BME280;44967;48.598;15.650;2022-07-23T13:01:33;98083.34;;;35.81;28.59
59194;BME280;44967;48.598;15.650;2022-07-23T13:06:31;98072.94;;;36.22;27.74
59194;BME280;44967;48.598;15.650;2022-07-23T13:08:58;98065.31;;;36.31;27.59
59194;BME280;44967;48.598;15.650;2022-07-23T13:11:24;98071.25;;;36.14;27.08
59194;BME280;44967;48.598;15.650;2022-07-23T13:13:49;98059.00;;;36.38;26.38
59194;BME280;44967;48.598;15.650;2022-07-23T13:16:15;98071.91;;;36.72;27.13
59194;BME280;44967;48.598;15.650;2022-07-23T13:18:41;98076.81;;;36.58;27.27
59194;BME280;44967;48.598;15.650;2022-07-23T13:21:06;98070.09;;;36.22;26.42
59194;BME280;44967;48.598;15.650;2022-07-23T13:23:33;98070.69;;;36.34;27.21
59194;BME280;44967;48.598;15.650;2022-07-23T13:25:58;98081.03;;;35.99;27.64
59194;BME280;44967;48.598;15.650;2022-07-23T13:28:24;98073.53;;;36.34;26.23
59194;BME280;44967;48.598;15.650;2022-07-23T13:30:51;98073.69;;;36.56;25.69
59194;BME280;44967;48.598;15.650;2022-07-23T13:33:19;98069.47;;;36.76;24.90
59194;BME280;44967;48.598;15.650;2022-07-23T13:35:45;98072.00;;;36.66;25.36
59194;BME280;44967;48.598;15.650;2022-07-23T13:38:11;98073.88;;;36.90;24.31
59194;BME280;44967;48.598;15.650;2022-07-23T13:40:40;98065.66;;;37.00;23.37
59194;BME280;44967;48.598;15.650;2022-07-23T13:43:12;98070.94;;;37.10;22.91
59194;BME280;44967;48.598;15.650;2022-07-23T13:45:38;98070.50;;;36.92;23.46
59194;BME280;44967;48.598;15.650;2022-07-23T13:48:06;98072.97;;;36.69;23.62
59194;BME280;44967;48.598;15.650;2022-07-23T13:50:32;98073.78;;;37.10;24.13
59194;BME280;44967;48.598;15.650;2022-07-23T13:53:02;98074.25;;;37.14;24.21
59194;BME280;44967;48.598;15.650;2022-07-23T13:55:28;98080.22;;;36.83;23.47
59194;BME280;44967;48.598;15.650;2022-07-23T13:57:54;98076.94;;;36.92;23.67
59194;BME280;44967;48.598;15.650;2022-07-23T14:00:20;98072.94;;;37.15;22.86
59194;BME280;44967;48.598;15.650;2022-07-23T14:02:45;98073.78;;;37.23;23.60
59194;BME280;44967;48.598;15.650;2022-07-23T14:05:11;98077.72;;;37.34;23.18
59194;BME280;44967;48.598;15.650;2022-07-23T14:07:37;98079.47;;;37.37;24.30
59194;BME280;44967;48.598;15.650;2022-07-23T14:10:04;98078.19;;;37.86;23.61
59194;BME280;44967;48.598;15.650;2022-07-23T14:12:31;98081.03;;;37.86;23.84
59194;BME280;44967;48.598;15.650;2022-07-23T14:14:56;98071.03;;;38.06;22.78
59194;BME280;44967;48.598;15.650;2022-07-23T14:17:22;98073.41;;;38.16;22.61
59194;BME280;44967;48.598;15.650;2022-07-23T14:19:48;98069.59;;;37.99;21.46
59194;BME280;44967;48.598;15.650;2022-07-23T14:22:14;98070.34;;;38.35;21.88
59194;BME280;44967;48.598;15.650;2022-07-23T14:24:42;98082.66;;;38.51;21.43
59194;BME280;44967;48.598;15.650;2022-07-23T14:27:08;98078.13;;;38.34;21.48
59194;BME280;44967;48.598;15.650;2022-07-23T14:29:33;98078.97;;;38.21;21.60
59194;BME280;44967;48.598;15.650;2022-07-23T14:32:00;98069.13;;;38.09;21.65